sensor_id;sensor_type;location;lat;lon;timestamp;P1;durP1;ratioP1;P2;durP2;ratioP2
49235;SDS011;35067;48.134;8.378;2023-02-28T00:00:08;3.15;;;2.53;;
49235;SDS011;35067;48.134;8.378;2023-02-28T00:01:17;4.03;;;2.80;;
49235;SDS011;35067;48.134;8.378;2023-02-28T00:02:22;5.43;;;2.95;;
49235;SDS011;35067;48.134;8.378;2023-02-28T00:03:28;4.55;;;2.80;;
49235;SDS011;35067;48.134;8.378;2023-02-28T00:04:33;3.05;;;2.22;;
49235;SDS011;35067;48.134;8.378;2023-02-28T00:05:39;3.28;;;2.97;;
49235;SDS011;35067;48.134;8.378;2023-02-28T00:06:44;5.30;;;2.70;;
49235;SDS011;35067;48.134;8.378;2023-02-28T00:07:50;3.13;;;2.55;;
49235;SDS011;35067;48.134;8.378;2023-02-28T00:08:55;4.00;;;2.70;;
49235;SDS011;35067;48.134;8.378;2023-02-28T00:10:01;3.10;;;2.50;;
49235;SDS011;35067;48.134;8.378;2023-02-28T00:11:08;5.30;;;2.58;;
49235;SDS011;35067;48.134;8.378;2023-02-28T00:12:14;4.15;;;2.45;;
49235;SDS011;35067;48.134;8.378;2023-02-28T00:13:15;3.75;;;2.67;;
49235;SDS011;35067;48.134;8.378;2023-02-28T00:14:21;2.75;;;2.55;;
49235;SDS011;35067;48.134;8.378;2023-02-28T00:15:27;3.20;;;2.70;;
49235;SDS011;35067;48.134;8.378;2023-02-28T00:16:32;3.10;;;2.75;;
49235;SDS011;35067;48.134;8.378;2023-02-28T00:17:37;3.55;;;2.60;;
49235;SDS011;35067;48.134;8.378;2023-02-28T00:18:43;3.47;;;2.50;;
49235;SDS011;35067;48.134;8.378;2023-02-28T00:19:49;4.07;;;2.58;;
49235;SDS011;35067;48.134;8.378;2023-02-28T00:20:54;3.42;;;2.40;;
49235;SDS011;35067;48.134;8.378;2023-02-28T00:22:00;3.40;;;2.78;;
49235;SDS011;35067;48.134;8.378;2023-02-28T00:23:04;3.60;;;2.60;;
49235;SDS011;35067;48.134;8.378;2023-02-28T00:24:09;5.82;;;3.47;;
49235;SDS011;35067;48.134;8.378;2023-02-28T00:25:16;5.20;;;3.10;;
49235;SDS011;35067;48.134;8.378;2023-02-28T00:26:21;2.65;;;2.25;;
49235;SDS011;35067;48.134;8.378;2023-02-28T00:27:26;3.47;;;2.63;;
49235;SDS011;35067;48.134;8.378;2023-02-28T00:28:32;6.30;;;3.28;;
49235;SDS011;35067;48.134;8.378;2023-02-28T00:29:37;3.72;;;2.58;;
49235;SDS011;35067;48.134;8.378;2023-02-28T00:30:43;3.83;;;2.70;;
49235;SDS011;35067;48.134;8.378;2023-02-28T00:31:48;4.40;;;3.25;;
49235;SDS011;35067;48.134;8.378;2023-02-28T00:32:53;5.88;;;2.65;;
49235;SDS011;35067;48.134;8.378;2023-02-28T00:33:59;3.55;;;2.72;;
49235;SDS011;35067;48.134;8.378;2023-02-28T00:35:04;4.68;;;2.83;;
49235;SDS011;35067;48.134;8.378;2023-02-28T00:36:10;3.42;;;2.58;;
49235;SDS011;35067;48.134;8.378;2023-02-28T00:37:15;3.78;;;2.65;;
49235;SDS011;35067;48.134;8.378;2023-02-28T00:38:20;5.07;;;3.05;;
49235;SDS011;35067;48.134;8.378;2023-02-28T00:39:26;4.93;;;2.97;;
49235;SDS011;35067;48.134;8.378;2023-02-28T00:40:31;3.78;;;2.75;;
49235;SDS011;35067;48.134;8.378;2023-02-28T00:41:36;4.47;;;3.22;;
49235;SDS011;35067;48.134;8.378;2023-02-28T00:42:42;4.50;;;3.08;;
49235;SDS011;35067;48.134;8.378;2023-02-28T00:43:47;4.68;;;2.80;;
49235;SDS011;35067;48.134;8.378;2023-02-28T00:44:53;4.78;;;2.95;;
49235;SDS011;35067;48.134;8.378;2023-02-28T00:45:59;4.68;;;2.70;;
49235;SDS011;35067;48.134;8.378;2023-02-28T00:47:04;6.75;;;2.80;;
49235;SDS011;35067;48.134;8.378;2023-02-28T00:48:09;3.85;;;3.00;;
49235;SDS011;35067;48.134;8.378;2023-02-28T00:49:14;4.00;;;2.92;;
49235;SDS011;35067;48.134;8.378;2023-02-28T00:50:20;5.20;;;3.15;;
49235;SDS011;35067;48.134;8.378;2023-02-28T00:51:25;4.28;;;3.00;;
49235;SDS011;35067;48.134;8.378;2023-02-28T00:52:30;4.13;;;2.90;;
49235;SDS011;35067;48.134;8.378;2023-02-28T00:53:36;4.78;;;2.80;;
49235;SDS011;35067;48.134;8.378;2023-02-28T00:54:41;3.33;;;2.55;;
49235;SDS011;35067;48.134;8.378;2023-02-28T00:55:48;3.25;;;2.67;;
49235;SDS011;35067;48.134;8.378;2023-02-28T00:56:53;6.40;;;2.78;;
49235;SDS011;35067;48.134;8.378;2023-02-28T00:57:58;5.07;;;3.30;;
49235;SDS011;35067;48.134;8.378;2023-02-28T00:59:04;3.92;;;2.90;;
49235;SDS011;35067;48.134;8.378;2023-02-28T01:00:08;3.47;;;2.72;;
49235;SDS011;35067;48.134;8.378;2023-02-28T01:01:14;3.05;;;2.22;;
49235;SDS011;35067;48.134;8.378;2023-02-28T01:02:20;3.25;;;2.58;;
49235;SDS011;35067;48.134;8.378;2023-02-28T01:03:26;6.32;;;2.72;;
49235;SDS011;35067;48.134;8.378;2023-02-28T01:04:31;3.65;;;3.13;;
49235;SDS011;35067;48.134;8.378;2023-02-28T01:05:36;4.85;;;2.95;;
49235;SDS011;35067;48.134;8.378;2023-02-28T01:06:42;4.63;;;3.63;;
49235;SDS011;35067;48.134;8.378;2023-02-28T01:07:47;5.07;;;3.00;;
49235;SDS011;35067;48.134;8.378;2023-02-28T01:08:53;3.38;;;2.88;;
49235;SDS011;35067;48.134;8.378;2023-02-28T01:09:58;3.45;;;2.83;;
49235;SDS011;35067;48.134;8.378;2023-02-28T01:11:07;3.03;;;2.55;;
49235;SDS011;35067;48.134;8.378;2023-02-28T01:12:14;5.93;;;2.72;;
49235;SDS011;35067;48.134;8.378;2023-02-28T01:13:19;4.75;;;2.90;;
49235;SDS011;35067;48.134;8.378;2023-02-28T01:14:25;4.72;;;3.03;;
49235;SDS011;35067;48.134;8.378;2023-02-28T01:15:30;5.10;;;2.97;;
49235;SDS011;35067;48.134;8.378;2023-02-28T01:16:36;3.83;;;2.67;;
49235;SDS011;35067;48.134;8.378;2023-02-28T01:17:41;3.53;;;2.55;;
49235;SDS011;35067;48.134;8.378;2023-02-28T01:18:46;4.40;;;2.67;;
49235;SDS011;35067;48.134;8.378;2023-02-28T01:19:53;3.45;;;2.58;;
49235;SDS011;35067;48.134;8.378;2023-02-28T01:20:57;3.60;;;2.72;;
49235;SDS011;35067;48.134;8.378;2023-02-28T01:22:04;3.03;;;2.40;;
49235;SDS011;35067;48.134;8.378;2023-02-28T01:23:09;3.70;;;2.88;;
49235;SDS011;35067;48.134;8.378;2023-02-28T01:24:14;3.47;;;2.60;;
49235;SDS011;35067;48.134;8.378;2023-02-28T01:25:19;3.65;;;2.75;;
49235;SDS011;35067;48.134;8.378;2023-02-28T01:26:25;3.47;;;2.75;;
49235;SDS011;35067;48.134;8.378;2023-02-28T01:27:26;3.20;;;2.80;;
49235;SDS011;35067;48.134;8.378;2023-02-28T01:28:32;3.70;;;2.83;;
49235;SDS011;35067;48.134;8.378;2023-02-28T01:29:37;5.07;;;3.03;;
49235;SDS011;35067;48.134;8.378;2023-02-28T01:30:47;4.35;;;2.83;;
49235;SDS011;35067;48.134;8.378;2023-02-28T01:31:52;3.65;;;2.75;;
49235;SDS011;35067;48.134;8.378;2023-02-28T01:32:57;6.43;;;3.33;;
49235;SDS011;35067;48.134;8.378;2023-02-28T01:34:03;4.60;;;2.95;;
49235;SDS011;35067;48.134;8.378;2023-02-28T01:35:08;3.40;;;2.70;;
49235;SDS011;35067;48.134;8.378;2023-02-28T01:36:10;4.40;;;2.57;;
49235;SDS011;35067;48.134;8.378;2023-02-28T01:37:18;5.18;;;3.17;;
49235;SDS011;35067;48.134;8.378;2023-02-28T01:38:24;4.57;;;2.97;;
49235;SDS011;35067;48.134;8.378;2023-02-28T01:39:29;3.88;;;3.00;;
49235;SDS011;35067;48.134;8.378;2023-02-28T01:40:34;4.13;;;3.00;;
49235;SDS011;35067;48.134;8.378;2023-02-28T01:41:40;3.47;;;2.70;;
49235;SDS011;35067;48.134;8.378;2023-02-28T01:42:45;4.80;;;3.08;;
49235;SDS011;35067;48.134;8.378;2023-02-28T01:43:56;7.22;;;3.05;;
49235;SDS011;35067;48.134;8.378;2023-02-28T01:45:22;2.90;;;2.50;;
49235;SDS011;35067;48.134;8.378;2023-02-28T01:46:35;4.72;;;2.60;;
49235;SDS011;35067;48.134;8.378;2023-02-28T01:47:41;4.95;;;3.00;;
49235;SDS011;35067;48.134;8.378;2023-02-28T01:50:06;4.45;;;2.72;;
49235;SDS011;35067;48.134;8.378;2023-02-28T01:51:19;3.22;;;2.90;;
49235;SDS011;35067;48.134;8.378;2023-02-28T01:52:31;2.65;;;2.38;;
49235;SDS011;35067;48.134;8.378;2023-02-28T01:53:39;3.70;;;2.70;;
49235;SDS011;35067;48.134;8.378;2023-02-28T01:54:52;3.15;;;2.67;;
49235;SDS011;35067;48.134;8.378;2023-02-28T01:56:02;3.97;;;2.80;;
49235;SDS011;35067;48.134;8.378;2023-02-28T01:57:10;4.15;;;2.65;;
49235;SDS011;35067;48.134;8.378;2023-02-28T01:58:21;5.45;;;3.05;;
49235;SDS011;35067;48.134;8.378;2023-02-28T01:59:38;3.75;;;2.90;;
49235;SDS011;35067;48.134;8.378;2023-02-28T02:00:53;3.03;;;2.67;;
49235;SDS011;35067;48.134;8.378;2023-02-28T02:01:59;3.22;;;2.70;;
49235;SDS011;35067;48.134;8.378;2023-02-28T02:03:08;4.75;;;2.78;;
49235;SDS011;35067;48.134;8.378;2023-02-28T02:04:16;3.28;;;2.78;;
49235;SDS011;35067;48.134;8.378;2023-02-28T02:05:23;3.90;;;2.75;;
49235;SDS011;35067;48.134;8.378;2023-02-28T02:06:43;3.60;;;2.70;;
49235;SDS011;35067;48.134;8.378;2023-02-28T02:07:50;3.53;;;2.72;;
49235;SDS011;35067;48.134;8.378;2023-02-28T02:08:55;4.25;;;2.88;;
49235;SDS011;35067;48.134;8.378;2023-02-28T02:10:02;5.60;;;3.28;;
49235;SDS011;35067;48.134;8.378;2023-02-28T02:11:26;3.35;;;2.50;;
49235;SDS011;35067;48.134;8.378;2023-02-28T02:14:30;2.90;;;2.50;;
49235;SDS011;35067;48.134;8.378;2023-02-28T02:17:42;4.45;;;2.60;;
49235;SDS011;35067;48.134;8.378;2023-02-28T02:33:15;6.55;;;2.90;;
49235;SDS011;35067;48.134;8.378;2023-02-28T02:34:44;6.82;;;3.53;;
49235;SDS011;35067;48.134;8.378;2023-02-28T02:39:06;4.97;;;2.92;;
49235;SDS011;35067;48.134;8.378;2023-02-28T02:40:30;4.00;;;2.92;;
49235;SDS011;35067;48.134;8.378;2023-02-28T02:41:51;3.63;;;2.85;;
49235;SDS011;35067;48.134;8.378;2023-02-28T02:43:06;4.65;;;3.10;;
49235;SDS011;35067;48.134;8.378;2023-02-28T02:44:21;5.13;;;2.78;;
49235;SDS011;35067;48.134;8.378;2023-02-28T02:45:33;4.32;;;3.15;;
49235;SDS011;35067;48.134;8.378;2023-02-28T02:46:50;6.60;;;3.30;;
49235;SDS011;35067;48.134;8.378;2023-02-28T02:48:00;4.28;;;3.00;;
49235;SDS011;35067;48.134;8.378;2023-02-28T02:49:05;5.47;;;3.65;;
49235;SDS011;35067;48.134;8.378;2023-02-28T02:50:17;7.03;;;3.65;;
49235;SDS011;35067;48.134;8.378;2023-02-28T02:51:30;5.38;;;3.33;;
49235;SDS011;35067;48.134;8.378;2023-02-28T02:52:39;4.75;;;3.53;;
49235;SDS011;35067;48.134;8.378;2023-02-28T02:53:54;5.07;;;3.45;;
49235;SDS011;35067;48.134;8.378;2023-02-28T02:55:16;5.53;;;3.05;;
49235;SDS011;35067;48.134;8.378;2023-02-28T02:56:26;5.18;;;3.30;;
49235;SDS011;35067;48.134;8.378;2023-02-28T02:57:38;5.90;;;3.63;;
49235;SDS011;35067;48.134;8.378;2023-02-28T02:58:52;4.90;;;3.30;;
49235;SDS011;35067;48.134;8.378;2023-02-28T03:00:01;3.83;;;3.15;;
49235;SDS011;35067;48.134;8.378;2023-02-28T03:01:11;4.88;;;3.40;;
49235;SDS011;35067;48.134;8.378;2023-02-28T03:02:32;4.53;;;3.53;;
49235;SDS011;35067;48.134;8.378;2023-02-28T03:03:40;5.07;;;3.50;;
49235;SDS011;35067;48.134;8.378;2023-02-28T03:04:47;4.88;;;2.97;;
49235;SDS011;35067;48.134;8.378;2023-02-28T03:05:59;4.63;;;3.33;;
49235;SDS011;35067;48.134;8.378;2023-02-28T03:07:04;4.15;;;3.33;;
49235;SDS011;35067;48.134;8.378;2023-02-28T03:08:08;5.22;;;3.20;;
49235;SDS011;35067;48.134;8.378;2023-02-28T03:09:14;8.40;;;3.67;;
49235;SDS011;35067;48.134;8.378;2023-02-28T03:10:31;4.57;;;3.17;;
49235;SDS011;35067;48.134;8.378;2023-02-28T03:11:46;5.50;;;3.30;;
49235;SDS011;35067;48.134;8.378;2023-02-28T03:12:53;5.53;;;3.50;;
49235;SDS011;35067;48.134;8.378;2023-02-28T03:15:27;4.45;;;3.40;;
49235;SDS011;35067;48.134;8.378;2023-02-28T03:18:47;4.75;;;3.20;;
49235;SDS011;35067;48.134;8.378;2023-02-28T03:20:17;4.55;;;3.25;;
49235;SDS011;35067;48.134;8.378;2023-02-28T03:21:56;4.93;;;3.42;;
49235;SDS011;35067;48.134;8.378;2023-02-28T03:24:31;4.82;;;2.95;;
49235;SDS011;35067;48.134;8.378;2023-02-28T03:25:54;4.90;;;3.38;;
49235;SDS011;35067;48.134;8.378;2023-02-28T03:27:07;3.80;;;3.10;;
49235;SDS011;35067;48.134;8.378;2023-02-28T03:29:51;5.63;;;3.85;;
49235;SDS011;35067;48.134;8.378;2023-02-28T03:31:11;5.63;;;3.30;;
49235;SDS011;35067;48.134;8.378;2023-02-28T03:32:29;4.47;;;3.50;;
49235;SDS011;35067;48.134;8.378;2023-02-28T03:35:34;6.88;;;4.22;;
49235;SDS011;35067;48.134;8.378;2023-02-28T03:36:53;4.30;;;3.28;;
49235;SDS011;35067;48.134;8.378;2023-02-28T03:38:05;6.15;;;3.35;;
49235;SDS011;35067;48.134;8.378;2023-02-28T03:39:27;4.40;;;3.53;;
49235;SDS011;35067;48.134;8.378;2023-02-28T03:41:09;4.18;;;3.40;;
49235;SDS011;35067;48.134;8.378;2023-02-28T03:42:23;5.40;;;3.65;;
49235;SDS011;35067;48.134;8.378;2023-02-28T03:43:34;5.15;;;3.22;;
49235;SDS011;35067;48.134;8.378;2023-02-28T03:44:48;5.88;;;4.03;;
49235;SDS011;35067;48.134;8.378;2023-02-28T03:45:59;5.05;;;3.83;;
49235;SDS011;35067;48.134;8.378;2023-02-28T03:48:23;6.15;;;4.07;;
49235;SDS011;35067;48.134;8.378;2023-02-28T03:49:42;5.28;;;3.97;;
49235;SDS011;35067;48.134;8.378;2023-02-28T03:51:00;6.15;;;3.65;;
49235;SDS011;35067;48.134;8.378;2023-02-28T03:52:07;6.18;;;4.05;;
49235;SDS011;35067;48.134;8.378;2023-02-28T03:53:19;4.95;;;3.42;;
49235;SDS011;35067;48.134;8.378;2023-02-28T03:54:44;7.90;;;4.18;;
49235;SDS011;35067;48.134;8.378;2023-02-28T03:57:51;4.28;;;3.28;;
49235;SDS011;35067;48.134;8.378;2023-02-28T03:59:07;5.28;;;3.55;;
49235;SDS011;35067;48.134;8.378;2023-02-28T04:00:34;5.97;;;3.65;;
49235;SDS011;35067;48.134;8.378;2023-02-28T04:01:45;7.50;;;4.18;;
49235;SDS011;35067;48.134;8.378;2023-02-28T04:02:53;5.75;;;3.65;;
49235;SDS011;35067;48.134;8.378;2023-02-28T04:03:59;5.57;;;3.97;;
49235;SDS011;35067;48.134;8.378;2023-02-28T04:05:04;6.13;;;4.07;;
49235;SDS011;35067;48.134;8.378;2023-02-28T04:06:13;6.47;;;3.95;;
49235;SDS011;35067;48.134;8.378;2023-02-28T04:07:23;6.30;;;4.25;;
49235;SDS011;35067;48.134;8.378;2023-02-28T04:08:29;5.05;;;3.60;;
49235;SDS011;35067;48.134;8.378;2023-02-28T04:09:35;6.28;;;4.25;;
49235;SDS011;35067;48.134;8.378;2023-02-28T04:10:41;6.38;;;4.18;;
49235;SDS011;35067;48.134;8.378;2023-02-28T04:11:51;6.28;;;4.07;;
49235;SDS011;35067;48.134;8.378;2023-02-28T04:12:58;7.68;;;4.20;;
49235;SDS011;35067;48.134;8.378;2023-02-28T04:14:04;7.35;;;4.10;;
49235;SDS011;35067;48.134;8.378;2023-02-28T04:15:09;4.15;;;3.50;;
49235;SDS011;35067;48.134;8.378;2023-02-28T04:16:15;6.05;;;3.92;;
49235;SDS011;35067;48.134;8.378;2023-02-28T04:17:21;4.43;;;3.75;;
49235;SDS011;35067;48.134;8.378;2023-02-28T04:18:26;6.05;;;3.97;;
49235;SDS011;35067;48.134;8.378;2023-02-28T04:19:31;5.78;;;4.05;;
49235;SDS011;35067;48.134;8.378;2023-02-28T04:20:37;6.15;;;4.30;;
49235;SDS011;35067;48.134;8.378;2023-02-28T04:21:50;6.22;;;4.30;;
49235;SDS011;35067;48.134;8.378;2023-02-28T04:22:54;4.82;;;3.60;;
49235;SDS011;35067;48.134;8.378;2023-02-28T04:23:59;5.30;;;3.55;;
49235;SDS011;35067;48.134;8.378;2023-02-28T04:25:05;6.90;;;4.95;;
49235;SDS011;35067;48.134;8.378;2023-02-28T04:26:09;5.72;;;4.10;;
49235;SDS011;35067;48.134;8.378;2023-02-28T04:27:14;5.78;;;4.68;;
49235;SDS011;35067;48.134;8.378;2023-02-28T04:28:19;7.90;;;3.97;;
49235;SDS011;35067;48.134;8.378;2023-02-28T04:29:29;5.65;;;4.05;;
49235;SDS011;35067;48.134;8.378;2023-02-28T04:30:34;4.43;;;3.92;;
49235;SDS011;35067;48.134;8.378;2023-02-28T04:31:37;6.35;;;4.40;;
49235;SDS011;35067;48.134;8.378;2023-02-28T04:32:43;5.35;;;4.20;;
49235;SDS011;35067;48.134;8.378;2023-02-28T04:33:48;5.25;;;3.92;;
49235;SDS011;35067;48.134;8.378;2023-02-28T04:34:54;6.50;;;4.57;;
49235;SDS011;35067;48.134;8.378;2023-02-28T04:36:00;7.57;;;4.25;;
49235;SDS011;35067;48.134;8.378;2023-02-28T04:37:04;6.07;;;4.00;;
49235;SDS011;35067;48.134;8.378;2023-02-28T04:38:09;7.90;;;4.32;;
49235;SDS011;35067;48.134;8.378;2023-02-28T04:39:15;7.35;;;4.63;;
49235;SDS011;35067;48.134;8.378;2023-02-28T04:40:20;5.63;;;4.00;;
49235;SDS011;35067;48.134;8.378;2023-02-28T04:41:26;5.72;;;4.47;;
49235;SDS011;35067;48.134;8.378;2023-02-28T04:42:31;6.65;;;4.05;;
49235;SDS011;35067;48.134;8.378;2023-02-28T04:43:40;8.50;;;4.90;;
49235;SDS011;35067;48.134;8.378;2023-02-28T04:44:45;9.15;;;4.97;;
49235;SDS011;35067;48.134;8.378;2023-02-28T04:45:52;6.97;;;4.78;;
49235;SDS011;35067;48.134;8.378;2023-02-28T04:46:57;4.75;;;3.97;;
49235;SDS011;35067;48.134;8.378;2023-02-28T04:48:03;8.93;;;4.30;;
49235;SDS011;35067;48.134;8.378;2023-02-28T04:49:04;5.25;;;4.05;;
49235;SDS011;35067;48.134;8.378;2023-02-28T04:50:09;5.65;;;4.05;;
49235;SDS011;35067;48.134;8.378;2023-02-28T04:51:15;7.55;;;4.93;;
49235;SDS011;35067;48.134;8.378;2023-02-28T04:52:20;6.65;;;4.47;;
49235;SDS011;35067;48.134;8.378;2023-02-28T04:53:26;6.13;;;4.35;;
49235;SDS011;35067;48.134;8.378;2023-02-28T04:54:31;6.47;;;4.30;;
49235;SDS011;35067;48.134;8.378;2023-02-28T04:55:37;6.80;;;4.63;;
49235;SDS011;35067;48.134;8.378;2023-02-28T04:56:45;6.63;;;4.38;;
49235;SDS011;35067;48.134;8.378;2023-02-28T04:57:50;7.55;;;4.32;;
49235;SDS011;35067;48.134;8.378;2023-02-28T04:58:55;8.30;;;4.20;;
49235;SDS011;35067;48.134;8.378;2023-02-28T05:00:01;7.20;;;4.75;;
49235;SDS011;35067;48.134;8.378;2023-02-28T05:01:19;5.63;;;4.50;;
49235;SDS011;35067;48.134;8.378;2023-02-28T05:02:34;6.53;;;3.90;;
49235;SDS011;35067;48.134;8.378;2023-02-28T05:03:40;6.07;;;4.10;;
49235;SDS011;35067;48.134;8.378;2023-02-28T05:04:47;6.10;;;4.10;;
49235;SDS011;35067;48.134;8.378;2023-02-28T05:05:53;5.35;;;4.30;;
49235;SDS011;35067;48.134;8.378;2023-02-28T05:06:58;7.65;;;4.15;;
49235;SDS011;35067;48.134;8.378;2023-02-28T05:08:04;7.00;;;4.50;;
49235;SDS011;35067;48.134;8.378;2023-02-28T05:09:05;7.32;;;4.88;;
49235;SDS011;35067;48.134;8.378;2023-02-28T05:10:06;8.27;;;5.03;;
49235;SDS011;35067;48.134;8.378;2023-02-28T05:11:14;7.18;;;4.15;;
49235;SDS011;35067;48.134;8.378;2023-02-28T05:12:29;6.22;;;4.43;;
49235;SDS011;35067;48.134;8.378;2023-02-28T05:13:35;6.38;;;4.15;;
49235;SDS011;35067;48.134;8.378;2023-02-28T05:14:40;6.72;;;5.07;;
49235;SDS011;35067;48.134;8.378;2023-02-28T05:15:46;9.50;;;4.93;;
49235;SDS011;35067;48.134;8.378;2023-02-28T05:16:52;5.00;;;3.83;;
49235;SDS011;35067;48.134;8.378;2023-02-28T05:17:57;5.22;;;4.18;;
49235;SDS011;35067;48.134;8.378;2023-02-28T05:19:03;6.80;;;4.43;;
49235;SDS011;35067;48.134;8.378;2023-02-28T05:20:09;7.82;;;4.55;;
49235;SDS011;35067;48.134;8.378;2023-02-28T05:21:31;7.53;;;4.65;;
49235;SDS011;35067;48.134;8.378;2023-02-28T05:22:40;9.60;;;4.80;;
49235;SDS011;35067;48.134;8.378;2023-02-28T05:23:46;9.05;;;5.22;;
49235;SDS011;35067;48.134;8.378;2023-02-28T05:24:52;11.48;;;6.63;;
49235;SDS011;35067;48.134;8.378;2023-02-28T05:25:58;10.85;;;6.93;;
49235;SDS011;35067;48.134;8.378;2023-02-28T05:27:03;8.98;;;5.50;;
49235;SDS011;35067;48.134;8.378;2023-02-28T05:28:09;7.13;;;4.88;;
49235;SDS011;35067;48.134;8.378;2023-02-28T05:29:14;6.80;;;4.45;;
49235;SDS011;35067;48.134;8.378;2023-02-28T05:30:20;5.88;;;4.00;;
49235;SDS011;35067;48.134;8.378;2023-02-28T05:31:26;5.65;;;4.20;;
49235;SDS011;35067;48.134;8.378;2023-02-28T05:32:32;7.30;;;4.80;;
49235;SDS011;35067;48.134;8.378;2023-02-28T05:33:37;6.00;;;4.72;;
49235;SDS011;35067;48.134;8.378;2023-02-28T05:34:44;8.73;;;4.80;;
49235;SDS011;35067;48.134;8.378;2023-02-28T05:35:50;7.40;;;4.93;;
49235;SDS011;35067;48.134;8.378;2023-02-28T05:36:55;9.65;;;5.20;;
49235;SDS011;35067;48.134;8.378;2023-02-28T05:38:01;11.23;;;5.13;;
49235;SDS011;35067;48.134;8.378;2023-02-28T05:39:07;6.07;;;4.70;;
49235;SDS011;35067;48.134;8.378;2023-02-28T05:40:17;6.20;;;4.50;;
49235;SDS011;35067;48.134;8.378;2023-02-28T05:41:25;8.77;;;5.30;;
49235;SDS011;35067;48.134;8.378;2023-02-28T05:42:31;7.93;;;5.43;;
49235;SDS011;35067;48.134;8.378;2023-02-28T05:43:37;8.43;;;5.22;;
49235;SDS011;35067;48.134;8.378;2023-02-28T05:44:43;6.75;;;4.55;;
49235;SDS011;35067;48.134;8.378;2023-02-28T05:45:48;9.25;;;5.00;;
49235;SDS011;35067;48.134;8.378;2023-02-28T05:46:54;7.03;;;4.95;;
49235;SDS011;35067;48.134;8.378;2023-02-28T05:48:00;8.35;;;5.80;;
49235;SDS011;35067;48.134;8.378;2023-02-28T05:49:04;8.43;;;5.20;;
49235;SDS011;35067;48.134;8.378;2023-02-28T05:50:09;9.15;;;5.28;;
49235;SDS011;35067;48.134;8.378;2023-02-28T05:51:15;6.93;;;5.25;;
49235;SDS011;35067;48.134;8.378;2023-02-28T05:52:22;9.82;;;6.70;;
49235;SDS011;35067;48.134;8.378;2023-02-28T05:53:28;9.25;;;5.57;;
49235;SDS011;35067;48.134;8.378;2023-02-28T05:54:34;7.97;;;5.97;;
49235;SDS011;35067;48.134;8.378;2023-02-28T05:55:40;6.57;;;4.75;;
49235;SDS011;35067;48.134;8.378;2023-02-28T05:56:46;8.07;;;5.80;;
49235;SDS011;35067;48.134;8.378;2023-02-28T05:57:51;8.63;;;6.75;;
49235;SDS011;35067;48.134;8.378;2023-02-28T05:58:57;7.00;;;4.40;;
49235;SDS011;35067;48.134;8.378;2023-02-28T06:00:03;7.20;;;5.45;;
49235;SDS011;35067;48.134;8.378;2023-02-28T06:02:43;8.30;;;5.30;;
49235;SDS011;35067;48.134;8.378;2023-02-28T06:03:44;8.80;;;5.30;;
49235;SDS011;35067;48.134;8.378;2023-02-28T06:04:49;8.63;;;5.38;;
49235;SDS011;35067;48.134;8.378;2023-02-28T06:05:55;7.22;;;5.82;;
49235;SDS011;35067;48.134;8.378;2023-02-28T06:07:00;10.65;;;5.65;;
49235;SDS011;35067;48.134;8.378;2023-02-28T06:08:04;9.95;;;5.78;;
49235;SDS011;35067;48.134;8.378;2023-02-28T06:09:09;6.53;;;4.68;;
49235;SDS011;35067;48.134;8.378;2023-02-28T06:10:14;7.45;;;4.78;;
49235;SDS011;35067;48.134;8.378;2023-02-28T06:11:20;9.88;;;5.97;;
49235;SDS011;35067;48.134;8.378;2023-02-28T06:12:25;7.88;;;6.07;;
49235;SDS011;35067;48.134;8.378;2023-02-28T06:13:31;9.68;;;5.68;;
49235;SDS011;35067;48.134;8.378;2023-02-28T06:14:36;8.32;;;4.93;;
49235;SDS011;35067;48.134;8.378;2023-02-28T06:15:42;10.35;;;5.68;;
49235;SDS011;35067;48.134;8.378;2023-02-28T06:16:47;12.98;;;5.90;;
49235;SDS011;35067;48.134;8.378;2023-02-28T06:17:53;8.00;;;5.70;;
49235;SDS011;35067;48.134;8.378;2023-02-28T06:18:59;9.80;;;6.57;;
49235;SDS011;35067;48.134;8.378;2023-02-28T06:20:04;8.20;;;5.35;;
49235;SDS011;35067;48.134;8.378;2023-02-28T06:21:09;8.18;;;4.72;;
49235;SDS011;35067;48.134;8.378;2023-02-28T06:22:14;8.63;;;5.88;;
49235;SDS011;35067;48.134;8.378;2023-02-28T06:23:20;9.52;;;5.35;;
49235;SDS011;35067;48.134;8.378;2023-02-28T06:24:26;7.03;;;4.95;;
49235;SDS011;35067;48.134;8.378;2023-02-28T06:25:32;8.50;;;6.22;;
49235;SDS011;35067;48.134;8.378;2023-02-28T06:26:38;7.50;;;5.25;;
49235;SDS011;35067;48.134;8.378;2023-02-28T06:27:43;6.68;;;4.97;;
49235;SDS011;35067;48.134;8.378;2023-02-28T06:28:49;8.80;;;5.18;;
49235;SDS011;35067;48.134;8.378;2023-02-28T06:29:54;10.50;;;5.00;;
49235;SDS011;35067;48.134;8.378;2023-02-28T06:31:05;8.38;;;5.43;;
49235;SDS011;35067;48.134;8.378;2023-02-28T06:32:14;8.57;;;5.03;;
49235;SDS011;35067;48.134;8.378;2023-02-28T06:33:19;8.05;;;4.75;;
49235;SDS011;35067;48.134;8.378;2023-02-28T06:34:25;7.63;;;5.90;;
49235;SDS011;35067;48.134;8.378;2023-02-28T06:35:30;6.95;;;5.32;;
49235;SDS011;35067;48.134;8.378;2023-02-28T06:36:37;9.50;;;5.60;;
49235;SDS011;35067;48.134;8.378;2023-02-28T06:37:42;6.60;;;4.90;;
49235;SDS011;35067;48.134;8.378;2023-02-28T06:38:47;8.50;;;5.43;;
49235;SDS011;35067;48.134;8.378;2023-02-28T06:39:59;7.43;;;5.18;;
49235;SDS011;35067;48.134;8.378;2023-02-28T06:41:04;9.55;;;5.30;;
49235;SDS011;35067;48.134;8.378;2023-02-28T06:42:10;7.72;;;5.57;;
49235;SDS011;35067;48.134;8.378;2023-02-28T06:43:16;8.80;;;5.63;;
49235;SDS011;35067;48.134;8.378;2023-02-28T06:44:22;8.80;;;5.43;;
49235;SDS011;35067;48.134;8.378;2023-02-28T06:45:29;8.68;;;5.60;;
49235;SDS011;35067;48.134;8.378;2023-02-28T06:46:34;8.43;;;4.85;;
49235;SDS011;35067;48.134;8.378;2023-02-28T06:47:40;7.25;;;5.22;;
49235;SDS011;35067;48.134;8.378;2023-02-28T06:48:46;9.75;;;6.10;;
49235;SDS011;35067;48.134;8.378;2023-02-28T06:49:52;6.70;;;4.43;;
49235;SDS011;35067;48.134;8.378;2023-02-28T06:51:18;8.05;;;5.38;;
49235;SDS011;35067;48.134;8.378;2023-02-28T06:52:29;12.05;;;6.05;;
49235;SDS011;35067;48.134;8.378;2023-02-28T06:53:35;9.52;;;5.22;;
49235;SDS011;35067;48.134;8.378;2023-02-28T06:54:41;8.40;;;5.25;;
49235;SDS011;35067;48.134;8.378;2023-02-28T06:55:47;8.48;;;6.13;;
49235;SDS011;35067;48.134;8.378;2023-02-28T06:56:52;7.50;;;5.20;;
49235;SDS011;35067;48.134;8.378;2023-02-28T06:57:59;8.93;;;5.88;;
49235;SDS011;35067;48.134;8.378;2023-02-28T06:59:04;9.48;;;6.10;;
49235;SDS011;35067;48.134;8.378;2023-02-28T07:00:09;9.23;;;6.13;;
49235;SDS011;35067;48.134;8.378;2023-02-28T07:01:16;10.43;;;6.28;;
49235;SDS011;35067;48.134;8.378;2023-02-28T07:02:22;7.22;;;5.03;;
49235;SDS011;35067;48.134;8.378;2023-02-28T07:03:27;9.25;;;5.38;;
49235;SDS011;35067;48.134;8.378;2023-02-28T07:04:33;8.77;;;5.53;;
49235;SDS011;35067;48.134;8.378;2023-02-28T07:05:39;8.57;;;5.63;;
49235;SDS011;35067;48.134;8.378;2023-02-28T07:06:45;6.82;;;5.40;;
49235;SDS011;35067;48.134;8.378;2023-02-28T07:07:50;9.48;;;5.35;;
49235;SDS011;35067;48.134;8.378;2023-02-28T07:08:57;7.10;;;5.45;;
49235;SDS011;35067;48.134;8.378;2023-02-28T07:10:03;8.85;;;5.28;;
49235;SDS011;35067;48.134;8.378;2023-02-28T07:11:09;7.18;;;5.35;;
49235;SDS011;35067;48.134;8.378;2023-02-28T07:12:15;8.73;;;5.60;;
49235;SDS011;35067;48.134;8.378;2023-02-28T07:13:21;9.55;;;6.30;;
49235;SDS011;35067;48.134;8.378;2023-02-28T07:14:28;9.38;;;5.55;;
49235;SDS011;35067;48.134;8.378;2023-02-28T07:15:34;8.40;;;5.80;;
49235;SDS011;35067;48.134;8.378;2023-02-28T07:16:41;8.20;;;5.43;;
49235;SDS011;35067;48.134;8.378;2023-02-28T07:17:47;9.63;;;6.68;;
49235;SDS011;35067;48.134;8.378;2023-02-28T07:18:53;9.27;;;5.82;;
49235;SDS011;35067;48.134;8.378;2023-02-28T07:19:59;10.80;;;6.47;;
49235;SDS011;35067;48.134;8.378;2023-02-28T07:21:05;7.85;;;5.38;;
49235;SDS011;35067;48.134;8.378;2023-02-28T07:22:09;9.63;;;6.38;;
49235;SDS011;35067;48.134;8.378;2023-02-28T07:23:14;9.43;;;5.60;;
49235;SDS011;35067;48.134;8.378;2023-02-28T07:24:20;10.60;;;6.20;;